createdAt,value
2022-12-28T00:01:40.098Z,25.83
2022-12-28T00:03:39.984Z,25.83
2022-12-28T00:05:40.036Z,25.90
2022-12-28T00:07:40.076Z,25.93
2022-12-28T00:09:40.005Z,25.82
2022-12-28T00:11:40.100Z,25.82
2022-12-28T00:13:39.949Z,25.83
2022-12-28T00:15:40.076Z,25.83
2022-12-28T00:17:39.952Z,25.82
2022-12-28T00:19:40.030Z,25.88
2022-12-28T00:21:40.102Z,25.86
2022-12-28T00:23:40.035Z,25.80
2022-12-28T00:25:40.040Z,25.81
2022-12-28T00:27:40.063Z,25.81
2022-12-28T00:29:40.094Z,25.80
2022-12-28T00:31:40.099Z,25.80
2022-12-28T00:33:40.084Z,25.90
2022-12-28T00:35:40.125Z,25.81
2022-12-28T00:37:40.082Z,25.83
2022-12-28T00:39:40.058Z,25.84
2022-12-28T00:41:40.117Z,25.89
2022-12-28T00:43:40.085Z,25.80
2022-12-28T00:45:39.978Z,25.81
2022-12-28T00:47:40.045Z,25.74
2022-12-28T00:49:40.090Z,25.80
2022-12-28T00:51:40.161Z,25.83
2022-12-28T00:53:40.105Z,25.75
2022-12-28T00:55:40.090Z,25.83
2022-12-28T00:57:40.099Z,25.90
2022-12-28T00:59:40.047Z,25.84
2022-12-28T01:01:40.165Z,25.85
2022-12-28T01:03:40.149Z,25.90
2022-12-28T01:05:40.119Z,25.80
2022-12-28T01:07:40.047Z,25.86
2022-12-28T01:09:40.044Z,25.79
2022-12-28T01:11:40.126Z,25.83
2022-12-28T01:13:40.096Z,25.78
2022-12-28T01:15:40.141Z,25.90
2022-12-28T01:17:40.152Z,25.80
2022-12-28T01:19:40.109Z,25.82
2022-12-28T01:21:40.164Z,25.79
2022-12-28T01:23:40.098Z,25.82
2022-12-28T01:25:40.128Z,25.81
2022-12-28T01:27:40.164Z,25.81
2022-12-28T01:29:40.154Z,25.81
2022-12-28T01:31:40.205Z,25.77
2022-12-28T01:33:40.126Z,25.86
2022-12-28T01:35:40.150Z,25.78
2022-12-28T01:37:40.008Z,25.79
2022-12-28T01:39:40.105Z,25.80
2022-12-28T01:41:40.073Z,25.80
2022-12-28T01:43:40.144Z,25.80
2022-12-28T01:45:40.210Z,25.83
2022-12-28T01:47:40.165Z,25.81
2022-12-28T01:49:40.214Z,25.83
2022-12-28T01:51:40.153Z,25.80
2022-12-28T01:53:40.115Z,25.79
2022-12-28T01:55:40.184Z,25.81
2022-12-28T01:57:40.130Z,25.81
2022-12-28T01:59:40.187Z,25.83
2022-12-28T02:01:40.156Z,25.80
2022-12-28T02:03:40.307Z,25.82
2022-12-28T02:05:40.037Z,25.80
2022-12-28T02:07:40.121Z,25.80
2022-12-28T02:09:40.089Z,25.80
2022-12-28T02:11:40.175Z,25.80
2022-12-28T02:13:40.170Z,25.81
2022-12-28T02:15:40.159Z,25.90
2022-12-28T02:17:40.077Z,25.78
2022-12-28T02:19:40.187Z,25.82
2022-12-28T02:21:40.208Z,25.80
2022-12-28T02:23:40.162Z,25.80
2022-12-28T02:25:40.150Z,25.80
2022-12-28T02:27:40.109Z,25.85
2022-12-28T02:29:40.177Z,25.78
2022-12-28T02:31:40.183Z,25.80
2022-12-28T02:33:40.108Z,25.75
2022-12-28T02:35:40.131Z,25.81
2022-12-28T02:37:40.258Z,25.80
2022-12-28T02:39:40.219Z,25.81
2022-12-28T02:41:40.118Z,25.78
2022-12-28T02:43:40.217Z,25.81
2022-12-28T02:45:40.232Z,25.80
2022-12-28T02:47:40.173Z,25.79
2022-12-28T02:49:40.147Z,25.84
2022-12-28T02:51:40.224Z,25.85
2022-12-28T02:53:40.172Z,25.81
2022-12-28T02:55:40.214Z,25.78
2022-12-28T02:57:40.164Z,25.81
2022-12-28T02:59:40.234Z,25.81
2022-12-28T03:01:40.342Z,25.80
2022-12-28T03:03:40.217Z,25.90
2022-12-28T03:05:40.272Z,25.89
2022-12-28T03:07:40.279Z,25.83
2022-12-28T03:09:40.223Z,25.80
2022-12-28T03:11:40.231Z,25.81
2022-12-28T03:13:40.180Z,25.85
2022-12-28T03:15:40.252Z,25.88
2022-12-28T03:17:40.256Z,25.82
2022-12-28T03:19:40.328Z,25.82
2022-12-28T03:21:40.253Z,25.80
2022-12-28T03:23:40.217Z,25.80
2022-12-28T03:25:40.213Z,25.81
2022-12-28T03:27:40.259Z,25.81
2022-12-28T03:29:40.256Z,25.81
2022-12-28T03:31:40.229Z,25.80
2022-12-28T03:33:40.259Z,25.89
2022-12-28T03:35:40.251Z,25.82
2022-12-28T03:37:40.315Z,25.80
2022-12-28T03:39:40.264Z,25.80
2022-12-28T03:41:40.206Z,25.91
2022-12-28T03:43:40.256Z,25.85
2022-12-28T03:45:46.364Z,25.83
2022-12-28T03:47:40.264Z,25.90
2022-12-28T03:49:40.269Z,25.83
2022-12-28T03:51:40.308Z,25.86
2022-12-28T03:53:40.282Z,25.88
2022-12-28T03:55:40.315Z,25.90
2022-12-28T03:57:40.226Z,25.80
2022-12-28T03:59:40.312Z,25.88
2022-12-28T04:01:40.376Z,25.80
2022-12-28T04:03:40.285Z,25.90
2022-12-28T04:05:40.279Z,25.82
2022-12-28T04:07:40.327Z,25.83
2022-12-28T04:09:40.295Z,25.83
2022-12-28T04:11:40.307Z,25.90
2022-12-28T04:13:40.320Z,25.84
2022-12-28T04:15:40.342Z,25.86
2022-12-28T04:17:40.274Z,25.81
2022-12-28T04:19:40.353Z,25.77
2022-12-28T04:21:40.311Z,25.80
2022-12-28T04:23:40.355Z,25.86
2022-12-28T04:25:40.294Z,25.80
2022-12-28T04:27:40.228Z,25.85
2022-12-28T04:29:40.340Z,25.83
2022-12-28T04:31:40.292Z,25.84
2022-12-28T04:33:40.309Z,25.78
2022-12-28T04:35:40.366Z,25.79
2022-12-28T04:37:40.387Z,25.80
2022-12-28T04:39:56.116Z,25.79
2022-12-28T04:41:40.336Z,25.80
2022-12-28T04:43:40.320Z,25.80
2022-12-28T04:45:40.253Z,25.80
2022-12-28T04:47:40.256Z,25.80
2022-12-28T04:49:40.247Z,25.80
2022-12-28T04:51:40.331Z,25.82
2022-12-28T04:53:40.363Z,25.81
2022-12-28T04:55:40.398Z,25.79
2022-12-28T04:57:40.353Z,25.82
2022-12-28T04:59:40.379Z,25.80
2022-12-28T05:01:40.460Z,25.83
2022-12-28T05:03:40.344Z,25.88
2022-12-28T05:05:40.331Z,25.80
2022-12-28T05:07:40.334Z,25.82
2022-12-28T05:09:40.351Z,25.89
2022-12-28T05:11:40.304Z,25.82
2022-12-28T05:13:40.428Z,25.83
2022-12-28T05:15:40.369Z,25.82
2022-12-28T05:17:40.356Z,25.90
2022-12-28T05:19:40.366Z,25.86
2022-12-28T05:21:40.395Z,25.81
2022-12-28T05:23:40.361Z,25.77
2022-12-28T05:25:40.332Z,25.83
2022-12-28T05:27:40.347Z,25.75
2022-12-28T05:29:40.308Z,25.79
2022-12-28T05:31:40.370Z,25.52
2022-12-28T05:33:40.416Z,25.84
2022-12-28T05:35:40.329Z,25.80
2022-12-28T05:37:40.284Z,25.75
2022-12-28T05:39:40.450Z,25.78
2022-12-28T05:41:40.304Z,25.80
2022-12-28T05:43:40.449Z,25.84
2022-12-28T05:45:40.400Z,25.80
2022-12-28T05:47:40.365Z,25.84
2022-12-28T05:49:40.408Z,25.80
2022-12-28T05:51:40.423Z,25.77
2022-12-28T05:53:40.463Z,25.80
2022-12-28T05:55:40.387Z,25.80
2022-12-28T05:57:40.356Z,25.74
2022-12-28T05:59:40.443Z,25.78
2022-12-28T06:01:40.600Z,25.80
2022-12-28T06:03:40.460Z,25.80
2022-12-28T06:05:40.377Z,25.85
2022-12-28T06:07:40.343Z,25.79
2022-12-28T06:09:40.420Z,25.80
2022-12-28T06:11:40.464Z,25.75
2022-12-28T06:13:40.379Z,25.80
2022-12-28T06:15:40.471Z,25.81
2022-12-28T06:17:40.477Z,25.75
2022-12-28T06:19:40.428Z,25.75
2022-12-28T06:21:40.488Z,25.77
2022-12-28T06:23:40.331Z,25.77
2022-12-28T06:25:40.457Z,25.79
2022-12-28T06:27:40.422Z,25.79
2022-12-28T06:29:40.382Z,25.80
2022-12-28T06:31:40.532Z,25.80
2022-12-28T06:33:40.387Z,25.80
2022-12-28T06:35:40.367Z,25.75
2022-12-28T06:37:40.487Z,25.79
2022-12-28T06:39:40.426Z,25.84
2022-12-28T06:41:40.431Z,25.83
2022-12-28T06:43:40.374Z,25.74
2022-12-28T06:45:40.547Z,25.78
2022-12-28T06:47:40.334Z,25.75
2022-12-28T06:49:40.355Z,25.09
2022-12-28T06:51:40.591Z,24.98
2022-12-28T06:53:40.566Z,24.95
2022-12-28T06:55:40.489Z,24.83
2022-12-28T06:57:40.467Z,24.80
2022-12-28T06:59:40.412Z,24.75
2022-12-28T07:01:40.698Z,24.66
2022-12-28T07:03:40.530Z,24.66
2022-12-28T07:05:40.565Z,24.58
2022-12-28T07:07:40.463Z,24.55
2022-12-28T07:09:40.448Z,24.52
2022-12-28T07:11:40.500Z,24.44
2022-12-28T07:13:40.534Z,24.48
2022-12-28T07:15:40.566Z,24.38
2022-12-28T07:17:40.478Z,24.36
2022-12-28T07:19:40.452Z,24.32
2022-12-28T07:21:40.527Z,24.25
2022-12-28T07:23:40.484Z,24.19
2022-12-28T07:25:40.451Z,24.15
2022-12-28T07:27:40.475Z,24.12
2022-12-28T07:29:40.525Z,24.13
2022-12-28T07:31:45.455Z,24.08
2022-12-28T07:33:40.575Z,24.10
2022-12-28T07:35:40.411Z,24.02
2022-12-28T07:37:40.408Z,24.02
2022-12-28T07:39:40.510Z,24.04
2022-12-28T07:41:40.435Z,23.98
2022-12-28T07:43:40.539Z,23.91
2022-12-28T07:45:40.517Z,23.94
2022-12-28T07:47:40.538Z,23.96
2022-12-28T07:49:40.495Z,23.92
2022-12-28T07:51:40.519Z,23.88
2022-12-28T07:53:40.562Z,23.91
2022-12-28T07:55:40.516Z,23.97
2022-12-28T07:57:40.515Z,23.96
2022-12-28T07:59:40.534Z,23.91
2022-12-28T08:01:40.605Z,24.00
2022-12-28T08:03:40.592Z,23.93
2022-12-28T08:05:40.528Z,24.05
2022-12-28T08:07:40.469Z,23.96
2022-12-28T08:09:40.604Z,24.09
2022-12-28T08:11:40.558Z,24.10
2022-12-28T08:13:40.612Z,24.14
2022-12-28T08:15:40.578Z,24.21
2022-12-28T08:17:40.533Z,24.30
2022-12-28T08:19:40.560Z,24.33
2022-12-28T08:21:40.534Z,24.41
2022-12-28T08:23:40.529Z,24.43
2022-12-28T08:25:40.458Z,24.53
2022-12-28T08:27:40.594Z,24.57
2022-12-28T08:29:40.618Z,24.70
2022-12-28T08:31:40.634Z,24.78
2022-12-28T08:33:40.513Z,24.86
2022-12-28T08:35:40.562Z,24.86
2022-12-28T08:37:40.499Z,24.94
2022-12-28T08:39:40.459Z,25.23
2022-12-28T08:41:40.589Z,25.21
2022-12-28T08:43:40.617Z,25.40
2022-12-28T08:45:40.622Z,25.58
2022-12-28T08:47:40.609Z,25.52
2022-12-28T08:49:40.577Z,25.54
2022-12-28T08:51:40.579Z,25.44
2022-12-28T08:53:40.584Z,25.50
2022-12-28T08:55:40.598Z,25.47
2022-12-28T08:57:40.556Z,25.47
2022-12-28T08:59:40.733Z,25.52
2022-12-28T09:01:44.138Z,25.46
2022-12-28T09:03:40.655Z,25.37
2022-12-28T09:05:40.693Z,25.26
2022-12-28T09:07:40.534Z,25.27
2022-12-28T09:09:40.612Z,25.47
2022-12-28T09:11:40.586Z,25.52
2022-12-28T09:13:40.620Z,25.50
2022-12-28T09:15:40.700Z,25.53
2022-12-28T09:17:40.590Z,25.52
2022-12-28T09:19:40.611Z,25.45
2022-12-28T09:21:40.669Z,25.52
2022-12-28T09:23:40.533Z,25.46
2022-12-28T09:25:40.737Z,25.52
2022-12-28T09:27:40.620Z,25.52
2022-12-28T09:29:40.605Z,25.47
2022-12-28T09:31:40.681Z,25.29
2022-12-28T09:34:05.549Z,25.33
2022-12-28T09:35:40.639Z,25.29
2022-12-28T09:37:40.652Z,25.43
2022-12-28T09:39:40.652Z,25.41
2022-12-28T09:41:40.613Z,25.35
2022-12-28T09:43:40.704Z,25.29
2022-12-28T09:45:40.589Z,25.21
2022-12-28T09:47:40.643Z,25.23
2022-12-28T09:49:40.573Z,25.40
2022-12-28T09:51:40.687Z,25.26
2022-12-28T09:53:40.652Z,25.19
2022-12-28T09:55:40.645Z,25.11
2022-12-28T09:57:40.671Z,24.95
2022-12-28T09:59:40.608Z,25.07
2022-12-28T10:01:40.608Z,25.01
2022-12-28T10:03:40.694Z,25.01
2022-12-28T10:05:40.559Z,25.05
2022-12-28T10:07:40.662Z,25.03
2022-12-28T10:09:40.665Z,25.07
2022-12-28T10:11:40.721Z,25.11
2022-12-28T10:13:55.633Z,25.29
2022-12-28T10:15:40.642Z,25.35
2022-12-28T10:17:40.637Z,25.23
2022-12-28T10:19:40.653Z,25.14
2022-12-28T10:21:40.622Z,25.12
2022-12-28T10:23:56.672Z,24.80
2022-12-28T10:25:40.686Z,25.05
2022-12-28T10:27:40.665Z,25.03
2022-12-28T10:29:40.676Z,24.91
2022-12-28T10:31:40.686Z,25.12
2022-12-28T10:33:40.695Z,25.26
2022-12-28T10:35:40.657Z,25.37
2022-12-28T10:37:40.673Z,25.23
2022-12-28T10:39:40.740Z,25.07
2022-12-28T10:41:40.661Z,25.28
2022-12-28T10:43:40.686Z,25.06
2022-12-28T10:45:40.707Z,25.19
2022-12-28T10:47:40.748Z,25.07
2022-12-28T10:49:43.906Z,25.12
2022-12-28T10:51:40.595Z,25.13
2022-12-28T10:53:40.815Z,25.17
2022-12-28T10:55:40.691Z,25.19
2022-12-28T10:58:03.018Z,25.12
2022-12-28T10:59:40.692Z,25.21
2022-12-28T11:01:40.919Z,25.38
2022-12-28T11:03:40.699Z,25.29
2022-12-28T11:05:40.723Z,25.40
2022-12-28T11:07:40.746Z,25.37
2022-12-28T11:09:40.672Z,25.47
2022-12-28T11:11:40.656Z,25.54
2022-12-28T11:13:40.735Z,25.54
2022-12-28T11:15:40.707Z,25.54
2022-12-28T11:17:40.679Z,25.39
2022-12-28T11:19:40.776Z,25.26
2022-12-28T11:21:40.861Z,25.50
2022-12-28T11:23:40.736Z,25.32
2022-12-28T11:25:40.722Z,25.39
2022-12-28T11:27:40.836Z,25.47
2022-12-28T11:29:40.721Z,25.38
2022-12-28T11:31:40.744Z,25.50
2022-12-28T11:33:40.761Z,25.52
2022-12-28T11:35:40.713Z,25.49
2022-12-28T11:37:40.764Z,25.60
2022-12-28T11:39:40.722Z,25.52
2022-12-28T11:41:46.974Z,25.28
2022-12-28T11:43:40.843Z,25.23
2022-12-28T11:45:40.733Z,25.28
2022-12-28T11:47:40.818Z,25.17
2022-12-28T11:49:40.738Z,25.15
2022-12-28T11:51:40.782Z,25.35
2022-12-28T11:53:40.748Z,25.46
2022-12-28T11:55:40.767Z,25.52
2022-12-28T11:57:40.730Z,25.63
2022-12-28T11:59:40.787Z,25.52
2022-12-28T12:01:40.923Z,25.52
2022-12-28T12:03:40.822Z,25.21
2022-12-28T12:05:40.713Z,25.52
2022-12-28T12:07:40.741Z,25.52
2022-12-28T12:11:40.784Z,25.52
2022-12-28T12:13:40.788Z,25.52
2022-12-28T12:15:40.793Z,25.42
2022-12-28T12:17:43.128Z,25.29
2022-12-28T12:19:40.855Z,25.22
2022-12-28T12:21:40.806Z,25.21
2022-12-28T12:23:40.688Z,25.19
2022-12-28T12:25:40.822Z,25.23
2022-12-28T12:27:40.856Z,25.09
2022-12-28T12:29:40.716Z,25.15
2022-12-28T12:31:40.797Z,26.17
2022-12-28T12:33:41.007Z,25.10
2022-12-28T12:35:40.833Z,25.07
2022-12-28T12:37:40.745Z,24.95
2022-12-28T12:39:40.840Z,24.95
2022-12-28T12:41:40.793Z,25.09
2022-12-28T12:43:40.793Z,25.50
2022-12-28T12:45:40.906Z,25.50
2022-12-28T12:47:40.798Z,25.37
2022-12-28T12:49:41.027Z,25.23
2022-12-28T12:51:40.797Z,25.22
2022-12-28T12:53:48.008Z,25.19
2022-12-28T12:55:40.896Z,25.44
2022-12-28T12:57:41.177Z,25.29
2022-12-28T12:59:40.908Z,25.26
2022-12-28T13:01:40.827Z,25.36
2022-12-28T13:03:40.789Z,25.30
2022-12-28T13:05:40.854Z,25.29
2022-12-28T13:07:40.990Z,25.47
2022-12-28T13:09:40.922Z,25.29
2022-12-28T13:11:40.863Z,25.22
2022-12-28T13:13:40.882Z,25.06
2022-12-28T13:15:40.893Z,25.19
2022-12-28T13:17:40.862Z,25.14
2022-12-28T13:19:40.888Z,25.35
2022-12-28T13:21:40.767Z,25.24
2022-12-28T13:23:40.915Z,25.08
2022-12-28T13:25:40.854Z,25.12
2022-12-28T13:27:40.896Z,25.17
2022-12-28T13:29:40.987Z,25.15
2022-12-28T13:31:40.819Z,25.47
2022-12-28T13:33:41.028Z,25.60
2022-12-28T13:35:40.960Z,25.52
2022-12-28T13:37:40.864Z,25.47
2022-12-28T13:39:42.340Z,25.38
2022-12-28T13:41:40.911Z,25.39
2022-12-28T13:43:40.861Z,25.25
2022-12-28T13:45:43.860Z,25.37
2022-12-28T13:47:40.883Z,25.07
2022-12-28T13:49:40.939Z,25.54
2022-12-28T13:51:40.918Z,25.56
2022-12-28T13:53:40.839Z,25.63
2022-12-28T13:55:40.848Z,25.49
2022-12-28T13:57:49.130Z,25.52
2022-12-28T13:59:40.933Z,25.38
2022-12-28T14:01:41.141Z,25.33
2022-12-28T14:03:46.028Z,25.23
2022-12-28T14:05:40.926Z,25.23
2022-12-28T14:07:40.888Z,25.13
2022-12-28T14:09:40.857Z,25.21
2022-12-28T14:11:40.929Z,25.24
2022-12-28T14:13:40.912Z,25.24
2022-12-28T14:15:41.596Z,25.21
2022-12-28T14:17:40.980Z,25.23
2022-12-28T14:19:40.917Z,25.24
2022-12-28T14:21:40.904Z,25.23
2022-12-28T14:23:40.950Z,25.21
2022-12-28T14:25:40.995Z,25.26
2022-12-28T14:27:40.807Z,25.22
2022-12-28T14:29:40.889Z,25.24
2022-12-28T14:31:41.017Z,25.13
2022-12-28T14:33:40.885Z,25.19
2022-12-28T14:35:40.958Z,25.11
2022-12-28T14:37:40.919Z,25.09
2022-12-28T14:39:40.906Z,25.21
2022-12-28T14:41:40.978Z,25.23
2022-12-28T14:43:40.824Z,25.16
2022-12-28T14:46:07.333Z,25.12
2022-12-28T14:47:40.861Z,25.13
2022-12-28T14:49:40.995Z,25.06
2022-12-28T14:51:44.265Z,24.98
2022-12-28T14:53:40.983Z,24.94
2022-12-28T14:55:41.006Z,24.95
2022-12-28T14:57:40.938Z,24.90
2022-12-28T14:59:40.826Z,24.95
2022-12-28T15:01:41.027Z,24.82
2022-12-28T15:03:41.022Z,24.81
2022-12-28T15:05:40.880Z,24.78
2022-12-28T15:07:40.988Z,24.79
2022-12-28T15:09:41.036Z,24.76
2022-12-28T15:11:40.979Z,24.75
2022-12-28T15:13:41.003Z,24.79
2022-12-28T15:15:40.939Z,24.79
2022-12-28T15:17:40.890Z,24.68
2022-12-28T15:19:40.916Z,24.69
2022-12-28T15:21:40.913Z,24.66
2022-12-28T15:23:40.911Z,24.65
2022-12-28T15:25:40.991Z,24.53
2022-12-28T15:27:40.947Z,24.53
2022-12-28T15:30:05.021Z,24.52
2022-12-28T15:31:41.029Z,24.39
2022-12-28T15:33:40.933Z,24.38
2022-12-28T15:35:40.970Z,24.33
2022-12-28T15:37:40.913Z,24.37
2022-12-28T15:39:41.043Z,24.22
2022-12-28T15:41:40.952Z,24.28
2022-12-28T15:43:41.039Z,24.12
2022-12-28T15:45:41.007Z,24.10
2022-12-28T15:47:40.989Z,24.00
2022-12-28T15:49:40.902Z,24.04
2022-12-28T15:51:40.965Z,24.01
2022-12-28T15:53:41.064Z,23.94
2022-12-28T15:55:41.027Z,24.04
2022-12-28T15:57:41.027Z,23.90
2022-12-28T15:59:40.970Z,27.22
2022-12-28T16:01:41.240Z,25.61
2022-12-28T16:03:41.199Z,25.64
2022-12-28T16:05:41.033Z,25.79
2022-12-28T16:07:41.043Z,25.65
2022-12-28T16:09:40.979Z,25.74
2022-12-28T16:11:41.084Z,25.65
2022-12-28T16:13:41.017Z,25.64
2022-12-28T16:15:41.032Z,25.76
2022-12-28T16:17:51.181Z,25.80
2022-12-28T16:19:41.002Z,25.80
2022-12-28T16:21:41.138Z,25.77
2022-12-28T16:23:41.047Z,25.74
2022-12-28T16:25:41.007Z,25.75
2022-12-28T16:27:41.063Z,25.75
2022-12-28T16:29:41.110Z,25.80
2022-12-28T16:31:41.108Z,25.75
2022-12-28T16:33:41.037Z,25.85
2022-12-28T16:35:40.974Z,25.83
2022-12-28T16:37:41.081Z,25.80
2022-12-28T16:39:40.951Z,25.46
2022-12-28T16:41:41.074Z,25.77
2022-12-28T16:43:41.004Z,25.80
2022-12-28T16:45:41.188Z,25.80
2022-12-28T16:47:44.655Z,25.83
2022-12-28T16:49:41.101Z,25.81
2022-12-28T16:51:41.096Z,25.83
2022-12-28T16:53:40.977Z,25.81
2022-12-28T16:55:41.163Z,25.74
2022-12-28T16:57:41.093Z,25.80
2022-12-28T16:59:40.989Z,25.75
2022-12-28T17:01:41.132Z,25.81
2022-12-28T17:03:41.098Z,25.80
2022-12-28T17:05:41.099Z,25.79
2022-12-28T17:07:41.043Z,25.74
2022-12-28T17:09:46.668Z,25.78
2022-12-28T17:11:40.974Z,25.76
2022-12-28T17:13:41.170Z,25.75
2022-12-28T17:15:41.228Z,25.76
2022-12-28T17:17:41.159Z,25.78
2022-12-28T17:19:41.058Z,25.79
2022-12-28T17:21:41.174Z,25.79
2022-12-28T17:23:41.007Z,25.79
2022-12-28T17:25:41.124Z,25.75
2022-12-28T17:27:41.035Z,25.80
2022-12-28T17:29:41.117Z,25.75
2022-12-28T17:31:41.097Z,25.80
2022-12-28T17:33:41.002Z,25.75
2022-12-28T17:35:41.154Z,25.75
2022-12-28T17:37:41.145Z,25.75
2022-12-28T17:39:41.162Z,25.74
2022-12-28T17:41:40.999Z,25.65
2022-12-28T17:43:41.132Z,25.72
2022-12-28T17:45:41.190Z,25.77
2022-12-28T17:47:41.035Z,25.72
2022-12-28T17:49:41.104Z,25.80
2022-12-28T17:51:41.193Z,25.82
2022-12-28T17:53:41.066Z,25.80
2022-12-28T17:55:41.165Z,25.72
2022-12-28T17:57:41.117Z,25.81
2022-12-28T17:59:41.129Z,25.65
2022-12-28T18:01:41.291Z,25.72
2022-12-28T18:03:41.263Z,25.77
2022-12-28T18:05:41.154Z,25.74
2022-12-28T18:07:41.246Z,25.77
2022-12-28T18:09:41.253Z,25.78
2022-12-28T18:11:41.212Z,25.84
2022-12-28T18:13:41.188Z,25.81
2022-12-28T18:15:41.096Z,25.80
2022-12-28T18:17:41.216Z,25.82
2022-12-28T18:19:41.141Z,25.80
2022-12-28T18:21:41.147Z,25.90
2022-12-28T18:23:41.193Z,25.84
2022-12-28T18:25:41.147Z,25.83
2022-12-28T18:27:41.130Z,25.80
2022-12-28T18:29:41.076Z,25.84
2022-12-28T18:31:41.220Z,25.80
2022-12-28T18:33:41.156Z,25.76
2022-12-28T18:35:41.135Z,25.83
2022-12-28T18:37:41.161Z,25.79
2022-12-28T18:39:41.182Z,25.75
2022-12-28T18:41:41.173Z,25.76
2022-12-28T18:43:41.110Z,25.80
2022-12-28T18:45:41.225Z,25.80
2022-12-28T18:47:41.245Z,25.51
2022-12-28T18:49:46.822Z,25.79
2022-12-28T18:51:41.270Z,25.78
2022-12-28T18:53:41.160Z,25.84
2022-12-28T18:55:45.354Z,25.79
2022-12-28T18:57:41.068Z,25.80
2022-12-28T18:59:41.212Z,25.82
2022-12-28T19:02:06.514Z,25.78
2022-12-28T19:03:41.442Z,25.83
2022-12-28T19:05:41.253Z,25.89
2022-12-28T19:07:45.725Z,25.84
2022-12-28T19:09:41.232Z,25.80
2022-12-28T19:11:41.245Z,25.80
2022-12-28T19:13:41.220Z,25.80
2022-12-28T19:15:41.271Z,25.80
2022-12-28T19:17:41.256Z,25.81
2022-12-28T19:19:41.238Z,25.81
2022-12-28T19:21:41.245Z,25.78
2022-12-28T19:23:41.333Z,25.80
2022-12-28T19:25:41.152Z,25.80
2022-12-28T19:27:41.315Z,25.75
2022-12-28T19:29:41.220Z,25.80
2022-12-28T19:31:41.402Z,25.80
2022-12-28T19:33:41.127Z,25.78
2022-12-28T19:35:41.273Z,25.80
2022-12-28T19:37:41.260Z,25.82
2022-12-28T19:39:41.263Z,25.81
2022-12-28T19:41:41.174Z,25.91
2022-12-28T19:43:41.305Z,25.80
2022-12-28T19:45:41.266Z,25.82
2022-12-28T19:47:41.159Z,25.78
2022-12-28T19:49:41.214Z,25.83
2022-12-28T19:51:41.152Z,25.80
2022-12-28T19:53:41.283Z,25.80
2022-12-28T19:55:41.133Z,25.80
2022-12-28T19:57:41.210Z,25.72
2022-12-28T19:59:41.505Z,25.80
2022-12-28T20:01:41.388Z,25.83
2022-12-28T20:03:41.304Z,25.80
2022-12-28T20:05:41.408Z,25.79
2022-12-28T20:07:41.258Z,25.75
2022-12-28T20:09:41.308Z,25.79
2022-12-28T20:11:41.203Z,25.84
2022-12-28T20:13:41.330Z,25.80
2022-12-28T20:15:41.301Z,25.80
2022-12-28T20:17:41.253Z,25.77
2022-12-28T20:19:41.289Z,25.78
2022-12-28T20:21:41.249Z,25.81
2022-12-28T20:23:41.251Z,25.79
2022-12-28T20:25:41.265Z,25.75
2022-12-28T20:27:41.378Z,25.74
2022-12-28T20:29:41.296Z,25.84
2022-12-28T20:31:41.477Z,25.81
2022-12-28T20:33:41.358Z,25.78
2022-12-28T20:35:41.290Z,25.80
2022-12-28T20:37:41.363Z,25.80
2022-12-28T20:39:41.245Z,25.79
2022-12-28T20:41:41.390Z,25.85
2022-12-28T20:43:41.265Z,25.80
2022-12-28T20:45:41.350Z,25.79
2022-12-28T20:47:41.335Z,25.78
2022-12-28T20:49:41.416Z,25.77
2022-12-28T20:51:41.273Z,25.80
2022-12-28T20:53:41.314Z,25.88
2022-12-28T20:55:41.377Z,25.84
2022-12-28T20:57:41.327Z,25.83
2022-12-28T20:59:41.256Z,25.83
2022-12-28T21:01:41.618Z,25.82
2022-12-28T21:03:41.471Z,25.84
2022-12-28T21:05:41.327Z,25.80
2022-12-28T21:07:41.376Z,25.85
2022-12-28T21:09:41.329Z,25.84
2022-12-28T21:11:41.339Z,25.80
2022-12-28T21:13:44.611Z,25.80
2022-12-28T21:15:41.764Z,25.78
2022-12-28T21:17:41.423Z,25.80
2022-12-28T21:19:41.407Z,25.81
2022-12-28T21:21:41.307Z,25.78
2022-12-28T21:23:41.265Z,25.86
2022-12-28T21:25:41.359Z,25.82
2022-12-28T21:27:41.376Z,25.80
2022-12-28T21:29:41.362Z,25.47
2022-12-28T21:31:41.452Z,25.89
2022-12-28T21:33:41.406Z,25.75
2022-12-28T21:35:41.362Z,25.65
2022-12-28T21:37:41.269Z,25.77
2022-12-28T21:39:41.350Z,25.77
2022-12-28T21:41:41.474Z,25.77
2022-12-28T21:43:41.411Z,25.80
2022-12-28T21:45:41.382Z,25.81
2022-12-28T21:47:41.399Z,25.80
2022-12-28T21:49:41.296Z,25.88
2022-12-28T21:51:41.444Z,25.77
2022-12-28T21:53:41.448Z,25.80
2022-12-28T21:55:41.372Z,25.79
2022-12-28T21:57:41.410Z,25.80
2022-12-28T21:59:41.392Z,25.77
2022-12-28T22:01:41.500Z,25.79
2022-12-28T22:03:41.389Z,25.81
2022-12-28T22:05:41.406Z,25.78
2022-12-28T22:07:41.427Z,25.79
2022-12-28T22:09:41.459Z,25.71
2022-12-28T22:11:41.354Z,25.74
2022-12-28T22:13:41.452Z,25.75
2022-12-28T22:15:41.440Z,25.75
2022-12-28T22:17:41.390Z,25.76
2022-12-28T22:19:41.464Z,25.83
2022-12-28T22:21:41.493Z,25.88
2022-12-28T22:23:41.425Z,25.78
2022-12-28T22:25:41.336Z,25.75
2022-12-28T22:27:41.375Z,25.83
2022-12-28T22:29:41.451Z,25.79
2022-12-28T22:31:41.451Z,25.72
2022-12-28T22:33:41.411Z,25.80
2022-12-28T22:35:41.451Z,25.77
2022-12-28T22:37:41.370Z,25.75
2022-12-28T22:39:41.421Z,25.80
2022-12-28T22:41:41.484Z,25.75
2022-12-28T22:43:41.527Z,25.80
2022-12-28T22:45:41.517Z,25.78
2022-12-28T22:47:41.504Z,25.80
2022-12-28T22:49:41.415Z,25.80
2022-12-28T22:51:41.360Z,25.80
2022-12-28T22:53:41.420Z,25.79
2022-12-28T22:55:41.352Z,25.76
2022-12-28T22:57:41.448Z,25.78
2022-12-28T22:59:41.453Z,25.79
2022-12-28T23:01:41.482Z,25.79
2022-12-28T23:03:41.496Z,25.77
2022-12-28T23:05:41.357Z,25.79
2022-12-28T23:07:41.383Z,25.80
2022-12-28T23:09:41.458Z,25.84
2022-12-28T23:11:41.455Z,25.74
2022-12-28T23:13:41.461Z,25.79
2022-12-28T23:15:41.417Z,25.75
2022-12-28T23:17:41.510Z,25.80
2022-12-28T23:19:41.500Z,25.80
2022-12-28T23:21:41.496Z,25.80
2022-12-28T23:23:41.480Z,25.78
2022-12-28T23:25:41.394Z,25.80
2022-12-28T23:27:41.500Z,25.75
2022-12-28T23:29:41.473Z,25.72
2022-12-28T23:31:41.503Z,25.51
2022-12-28T23:33:41.505Z,25.81
2022-12-28T23:35:41.519Z,25.80
2022-12-28T23:37:41.610Z,25.80
2022-12-28T23:39:41.652Z,25.77
2022-12-28T23:41:41.492Z,25.80
2022-12-28T23:43:41.502Z,25.81
2022-12-28T23:45:41.541Z,25.84
2022-12-28T23:47:41.545Z,25.80
2022-12-28T23:49:41.568Z,25.75
2022-12-28T23:51:41.494Z,25.80
2022-12-28T23:53:41.635Z,25.82
2022-12-28T23:55:41.482Z,25.80
2022-12-28T23:57:41.526Z,25.75
2022-12-28T23:59:41.522Z,25.80
